Time;durP1;ratioP1;P1;durP2;ratioP2;P2;SDS_P1;SDS_P2;PMS_P1;PMS_P2;Temp;Humidity;BMP_temperature;BMP_pressure;BME280_temperature;BME280_humidity;BME280_pressure;Samples;Min_cycle;Max_cycle;Signal;HPM_P1;HPM_P2
2023/08/16 00:01:28;;;;;;;5.13;4.20;;;26.80;60.40;;;;;;5114748;28;20026;-70
2023/08/16 00:03:54;;;;;;;4.90;4.40;;;26.80;60.40;;;;;;5113119;28;20028;-71
2023/08/16 00:06:20;;;;;;;6.25;4.40;;;26.70;60.50;;;;;;5112940;28;20058;-70
2023/08/16 00:08:45;;;;;;;5.40;4.47;;;26.70;60.60;;;;;;5113488;28;20039;-70
2023/08/16 00:11:11;;;;;;;5.97;4.70;;;26.70;60.80;;;;;;5113573;28;20103;-71
2023/08/16 00:13:37;;;;;;;6.15;4.90;;;26.60;60.90;;;;;;5113322;28;20062;-70
2023/08/16 00:16:03;;;;;;;6.40;5.07;;;26.60;61.00;;;;;;5113940;28;20558;-70
2023/08/16 00:18:30;;;;;;;5.43;4.80;;;26.50;60.90;;;;;;5114380;28;20046;-70
2023/08/16 00:20:56;;;;;;;5.85;4.90;;;26.50;61.00;;;;;;5113807;28;20031;-70
2023/08/16 00:23:22;;;;;;;5.43;4.47;;;26.40;61.10;;;;;;5113082;28;21771;-70
2023/08/16 00:25:47;;;;;;;6.32;5.43;;;26.40;61.20;;;;;;5114096;28;20110;-70
2023/08/16 00:28:13;;;;;;;5.72;5.20;;;26.30;61.30;;;;;;5113689;28;20032;-71
2023/08/16 00:30:38;;;;;;;5.15;4.65;;;26.30;61.40;;;;;;5112074;28;20024;-71
2023/08/16 00:33:04;;;;;;;5.78;5.18;;;26.20;61.50;;;;;;5113884;28;20028;-71
2023/08/16 00:35:30;;;;;;;5.22;4.65;;;26.20;61.50;;;;;;5106526;28;20027;-71
2023/08/16 00:37:58;;;;;;;6.07;5.00;;;26.20;61.60;;;;;;5114466;27;20030;-70
2023/08/16 00:40:24;;;;;;;5.65;4.88;;;26.10;61.60;;;;;;5112368;28;20027;-70
2023/08/16 00:42:49;;;;;;;8.43;5.70;;;26.10;61.70;;;;;;5113033;28;20386;-71
2023/08/16 00:45:15;;;;;;;7.85;5.30;;;26.10;61.70;;;;;;5113428;27;20409;-71
2023/08/16 00:47:42;;;;;;;6.00;5.40;;;26.10;61.80;;;;;;5113786;28;20027;-71
2023/08/16 00:50:08;;;;;;;6.68;5.50;;;26.10;61.90;;;;;;5117636;27;20023;-71
2023/08/16 00:52:34;;;;;;;5.95;5.07;;;26.10;62.00;;;;;;5114041;28;20027;-72
2023/08/16 00:55:02;;;;;;;8.35;5.55;;;26.00;62.00;;;;;;5113485;28;20032;-72
2023/08/16 00:57:28;;;;;;;6.90;6.03;;;26.00;62.10;;;;;;5111240;28;20036;-72
2023/08/16 00:59:54;;;;;;;8.10;5.40;;;26.00;62.10;;;;;;5112203;28;20031;-72
2023/08/16 01:02:20;;;;;;;6.88;6.18;;;26.00;62.20;;;;;;5112174;28;20020;-72
2023/08/16 01:04:46;;;;;;;6.00;5.40;;;26.00;62.20;;;;;;5112906;28;20114;-71
2023/08/16 01:07:12;;;;;;;5.65;4.90;;;26.00;62.40;;;;;;5113029;28;20024;-71
2023/08/16 01:09:37;;;;;;;6.05;5.22;;;26.00;62.40;;;;;;5113432;28;20116;-72
2023/08/16 01:12:22;;;;;;;6.07;5.15;;;26.00;62.40;;;;;;5112633;28;20036;-71
2023/08/16 01:14:57;;;;;;;6.45;5.57;;;26.00;62.70;;;;;;5107205;28;20023;-71
2023/08/16 01:17:24;;;;;;;5.60;5.03;;;26.00;62.60;;;;;;5113235;28;20036;-71
2023/08/16 01:19:53;;;;;;;5.25;4.75;;;26.00;62.50;;;;;;5112928;28;20047;-71
2023/08/16 01:22:44;;;;;;;5.70;4.93;;;26.10;62.60;;;;;;5112841;28;20031;-71
2023/08/16 01:25:28;;;;;;;5.75;4.75;;;26.10;63.70;;;;;;5086680;28;20108;-71
2023/08/16 01:27:55;;;;;;;5.07;4.43;;;26.10;64.10;;;;;;5113224;28;20102;-70
2023/08/16 01:30:22;;;;;;;5.55;4.55;;;26.20;63.00;;;;;;5112682;28;20035;-71
2023/08/16 01:32:47;;;;;;;5.15;4.63;;;26.20;63.20;;;;;;5113218;28;20020;-71
2023/08/16 01:35:15;;;;;;;6.75;4.95;;;26.20;63.20;;;;;;5116986;28;20110;-71
2023/08/16 01:37:42;;;;;;;5.15;4.65;;;26.20;63.30;;;;;;5117014;28;20024;-71
2023/08/16 01:40:09;;;;;;;5.35;4.85;;;26.20;63.30;;;;;;5115414;28;20027;-71
2023/08/16 01:42:39;;;;;;;6.30;4.75;;;26.10;63.30;;;;;;5115853;28;20028;-71
2023/08/16 01:45:07;;;;;;;6.20;4.82;;;26.10;63.40;;;;;;5116696;28;20474;-71
2023/08/16 01:47:33;;;;;;;5.00;4.40;;;26.10;63.50;;;;;;5115058;28;20088;-71
2023/08/16 01:49:59;;;;;;;5.03;4.40;;;26.10;63.50;;;;;;5117188;28;20043;-71
2023/08/16 01:52:26;;;;;;;4.80;4.25;;;26.10;63.60;;;;;;5116393;28;20102;-70
2023/08/16 01:54:52;;;;;;;4.95;4.45;;;26.10;63.70;;;;;;5116657;28;20473;-71
2023/08/16 01:57:17;;;;;;;4.60;4.10;;;26.10;63.80;;;;;;5115089;28;20038;-71
2023/08/16 01:59:43;;;;;;;4.78;4.20;;;26.10;63.90;;;;;;5116669;28;20087;-71
2023/08/16 02:02:09;;;;;;;5.50;4.45;;;26.10;63.90;;;;;;5116408;28;20479;-71
2023/08/16 02:04:34;;;;;;;4.40;4.00;;;26.10;63.80;;;;;;5116559;28;20503;-72
2023/08/16 02:07:00;;;;;;;4.50;3.95;;;26.10;63.80;;;;;;5116431;28;20500;-71
2023/08/16 02:09:25;;;;;;;6.93;4.38;;;26.10;63.70;;;;;;5116986;28;20051;-71
2023/08/16 02:11:51;;;;;;;4.43;4.03;;;26.20;63.80;;;;;;5116368;28;20081;-71
2023/08/16 02:14:17;;;;;;;5.65;4.72;;;26.20;63.70;;;;;;5115010;28;20028;-71
2023/08/16 02:16:42;;;;;;;5.07;4.57;;;26.20;63.70;;;;;;5116375;28;20030;-71
2023/08/16 02:19:08;;;;;;;5.50;4.45;;;26.20;63.70;;;;;;5116409;28;20032;-72
2023/08/16 02:21:34;;;;;;;5.88;4.28;;;26.10;63.60;;;;;;5115998;28;20019;-72
2023/08/16 02:23:59;;;;;;;7.20;4.20;;;26.20;63.70;;;;;;5114898;28;20027;-72
2023/08/16 02:26:25;;;;;;;4.50;4.10;;;26.20;63.70;;;;;;5115915;28;20081;-71
2023/08/16 02:28:51;;;;;;;5.20;4.15;;;26.20;63.70;;;;;;5120429;27;20038;-71
2023/08/16 02:31:17;;;;;;;5.70;4.15;;;26.20;63.70;;;;;;5114597;28;20027;-72
2023/08/16 02:33:43;;;;;;;5.15;4.65;;;26.20;63.60;;;;;;5120670;27;20031;-72
2023/08/16 02:36:09;;;;;;;4.80;4.30;;;26.20;63.60;;;;;;5116293;28;20055;-71
2023/08/16 02:38:34;;;;;;;4.72;4.22;;;26.20;63.60;;;;;;5114042;28;20023;-72
2023/08/16 02:41:00;;;;;;;5.18;4.68;;;26.20;63.70;;;;;;5116531;28;20121;-72
2023/08/16 02:43:26;;;;;;;4.95;4.13;;;26.10;63.70;;;;;;5116761;28;20372;-72
2023/08/16 02:45:53;;;;;;;4.50;4.10;;;26.20;63.80;;;;;;5115264;28;20040;-71
2023/08/16 02:48:19;;;;;;;6.22;4.60;;;26.10;63.70;;;;;;5115959;28;20031;-72
2023/08/16 02:50:44;;;;;;;4.75;4.25;;;26.10;63.70;;;;;;5117185;27;20026;-72
2023/08/16 02:53:10;;;;;;;5.60;4.22;;;26.10;63.70;;;;;;5116071;28;20043;-72
2023/08/16 02:55:36;;;;;;;4.70;4.20;;;26.20;63.70;;;;;;5116086;28;20034;-71
2023/08/16 02:58:01;;;;;;;4.90;4.40;;;26.10;63.70;;;;;;5116137;28;20097;-72
2023/08/16 03:00:28;;;;;;;4.63;4.13;;;26.10;63.80;;;;;;5114644;28;20038;-72
2023/08/16 03:02:53;;;;;;;5.38;4.35;;;26.10;63.80;;;;;;5115941;28;20032;-71
2023/08/16 03:05:19;;;;;;;5.28;4.40;;;26.10;63.80;;;;;;5115459;28;20048;-71
2023/08/16 03:07:45;;;;;;;5.70;4.35;;;26.10;63.80;;;;;;5114765;28;20466;-72
2023/08/16 03:10:10;;;;;;;4.30;3.90;;;26.10;63.80;;;;;;5114983;28;20048;-71
2023/08/16 03:12:36;;;;;;;4.85;4.38;;;26.10;63.80;;;;;;5115121;28;20023;-71
2023/08/16 03:15:01;;;;;;;4.90;4.40;;;26.10;63.80;;;;;;5115333;28;20051;-72
2023/08/16 03:17:27;;;;;;;4.88;4.38;;;26.10;63.80;;;;;;5115188;28;20054;-72
2023/08/16 03:19:53;;;;;;;5.82;5.22;;;26.10;63.80;;;;;;5115157;28;20036;-72
2023/08/16 03:22:19;;;;;;;5.20;4.70;;;26.10;63.80;;;;;;5115390;28;20039;-71
2023/08/16 03:24:46;;;;;;;5.90;4.72;;;26.10;63.80;;;;;;5115322;28;20035;-72
2023/08/16 03:27:13;;;;;;;6.00;5.40;;;26.00;63.90;;;;;;5115217;28;20416;-72
2023/08/16 03:29:38;;;;;;;5.20;4.70;;;26.00;63.90;;;;;;5115289;28;20036;-71
2023/08/16 03:32:04;;;;;;;5.70;5.07;;;26.00;64.00;;;;;;5113515;28;20028;-72
2023/08/16 03:34:30;;;;;;;5.55;4.97;;;26.00;64.00;;;;;;5113702;28;20031;-71
2023/08/16 03:36:56;;;;;;;5.82;5.22;;;26.00;64.10;;;;;;5115400;28;20042;-71
2023/08/16 03:39:22;;;;;;;5.60;4.95;;;26.10;64.20;;;;;;5113051;28;20080;-71
2023/08/16 03:41:48;;;;;;;7.47;5.32;;;26.10;64.20;;;;;;5113639;28;20111;-71
2023/08/16 03:44:13;;;;;;;6.40;5.03;;;26.10;64.20;;;;;;5114443;28;20055;-72
2023/08/16 03:46:39;;;;;;;5.82;4.80;;;26.10;64.30;;;;;;5115266;28;20032;-72
2023/08/16 03:49:04;;;;;;;6.22;5.15;;;26.10;64.30;;;;;;5114486;28;20035;-72
2023/08/16 03:51:30;;;;;;;6.00;5.40;;;26.10;64.40;;;;;;5114310;28;20038;-71
2023/08/16 03:53:56;;;;;;;5.95;5.35;;;26.10;64.40;;;;;;5123061;27;20035;-72
2023/08/16 03:56:22;;;;;;;5.72;5.22;;;26.10;64.40;;;;;;5121336;27;20139;-71
2023/08/16 03:58:48;;;;;;;6.13;5.18;;;26.20;64.50;;;;;;5114627;28;20038;-71
2023/08/16 04:01:14;;;;;;;5.88;5.28;;;26.20;64.60;;;;;;5113881;28;20027;-72
2023/08/16 04:03:39;;;;;;;6.30;5.07;;;26.20;64.60;;;;;;5114215;28;20027;-72
2023/08/16 04:06:10;;;;;;;5.78;5.18;;;26.20;64.60;;;;;;5113750;28;20043;-72
2023/08/16 04:08:36;;;;;;;7.15;5.30;;;26.30;64.80;;;;;;5114468;28;20020;-72
2023/08/16 04:11:02;;;;;;;6.03;5.40;;;26.30;64.80;;;;;;5113073;28;20056;-72
2023/08/16 04:13:27;;;;;;;5.85;5.30;;;26.30;65.00;;;;;;5114229;28;20023;-72
2023/08/16 04:15:53;;;;;;;5.97;5.20;;;26.30;65.10;;;;;;5113989;28;20492;-72
2023/08/16 04:18:19;;;;;;;10.05;8.23;;;26.30;65.20;;;;;;5113871;28;20028;-72
2023/08/16 04:20:44;;;;;;;8.60;6.90;;;26.30;65.30;;;;;;5113931;28;20026;-72
2023/08/16 04:23:10;;;;;;;6.20;5.40;;;26.30;65.40;;;;;;5113886;28;20037;-71
2023/08/16 04:25:36;;;;;;;7.43;5.53;;;26.30;65.70;;;;;;5113786;28;20028;-71
2023/08/16 04:28:02;;;;;;;6.15;5.55;;;26.20;65.80;;;;;;5116459;27;20085;-72
2023/08/16 04:30:27;;;;;;;7.15;6.05;;;26.20;66.00;;;;;;5114054;28;20023;-72
2023/08/16 04:32:53;;;;;;;7.63;6.15;;;26.20;66.10;;;;;;5112746;27;20110;-72
2023/08/16 04:35:19;;;;;;;5.82;5.30;;;26.10;66.20;;;;;;5113193;28;20457;-71
2023/08/16 04:37:44;;;;;;;5.85;5.30;;;26.10;66.40;;;;;;5114908;27;20031;-71
2023/08/16 04:40:11;;;;;;;8.10;7.30;;;26.10;66.60;;;;;;5113788;28;20376;-72
2023/08/16 04:42:36;;;;;;;9.18;7.65;;;26.10;66.70;;;;;;5094680;28;20024;-71
2023/08/16 04:45:03;;;;;;;7.75;7.00;;;26.10;66.70;;;;;;5108808;28;20036;-72
2023/08/16 04:47:29;;;;;;;7.30;6.60;;;26.10;66.80;;;;;;5106065;28;20027;-72
2023/08/16 04:49:55;;;;;;;6.53;5.82;;;26.10;66.70;;;;;;5113943;28;20116;-71
2023/08/16 04:52:21;;;;;;;6.70;5.38;;;26.10;66.70;;;;;;5112171;28;20037;-72
2023/08/16 04:54:46;;;;;;;5.90;5.13;;;26.10;66.80;;;;;;5113347;28;20392;-71
2023/08/16 04:57:12;;;;;;;5.68;4.88;;;26.20;66.80;;;;;;5113368;28;20027;-71
2023/08/16 04:59:38;;;;;;;8.63;5.07;;;26.20;66.70;;;;;;5113671;28;20023;-71
2023/08/16 05:02:03;;;;;;;5.55;5.00;;;26.20;66.70;;;;;;5113310;28;20035;-71
2023/08/16 05:04:29;;;;;;;5.50;5.00;;;26.30;66.70;;;;;;5111889;28;20024;-72
2023/08/16 05:06:54;;;;;;;6.47;4.82;;;26.30;66.70;;;;;;5113100;28;20032;-72
2023/08/16 05:09:20;;;;;;;5.45;4.95;;;26.30;66.60;;;;;;5110683;28;20066;-71
2023/08/16 05:11:46;;;;;;;4.97;4.30;;;26.40;66.60;;;;;;5111331;28;20109;-72
2023/08/16 05:14:11;;;;;;;4.45;4.00;;;26.40;66.50;;;;;;5113004;28;20066;-71
2023/08/16 05:16:37;;;;;;;4.95;4.45;;;26.40;67.00;;;;;;5112614;28;20453;-71
2023/08/16 05:19:03;;;;;;;5.40;4.20;;;26.50;66.50;;;;;;5111832;28;20139;-71
2023/08/16 05:21:29;;;;;;;4.90;4.20;;;26.50;66.50;;;;;;5111495;28;20072;-71
2023/08/16 05:23:54;;;;;;;5.60;4.93;;;26.50;66.40;;;;;;5113301;28;20031;-71
2023/08/16 05:26:20;;;;;;;5.47;4.60;;;26.50;66.30;;;;;;5112858;28;20166;-71
2023/08/16 05:28:46;;;;;;;4.72;4.30;;;26.50;66.90;;;;;;5113207;28;20587;-71
2023/08/16 05:31:13;;;;;;;4.63;4.18;;;26.50;66.20;;;;;;5112533;28;20035;-71
2023/08/16 05:33:39;;;;;;;7.00;4.50;;;26.50;66.10;;;;;;5111493;28;20024;-71
2023/08/16 05:36:05;;;;;;;4.78;4.38;;;26.60;66.20;;;;;;5112802;28;20039;-72
2023/08/16 05:38:31;;;;;;;5.15;4.65;;;26.60;66.10;;;;;;5112331;28;20026;-72
2023/08/16 05:40:58;;;;;;;4.40;4.00;;;26.60;66.00;;;;;;5113062;28;20027;-71
2023/08/16 05:43:24;;;;;;;5.65;4.90;;;26.70;66.10;;;;;;5111213;28;20027;-70
2023/08/16 05:45:50;;;;;;;5.22;4.72;;;26.70;66.00;;;;;;5112252;28;20050;-71
2023/08/16 05:48:15;;;;;;;5.15;4.53;;;26.70;65.90;;;;;;5112119;28;20489;-71
2023/08/16 05:50:41;;;;;;;5.93;4.50;;;26.70;65.80;;;;;;5113341;28;20024;-73
2023/08/16 05:53:07;;;;;;;5.25;4.40;;;26.80;65.80;;;;;;5111469;28;20038;-71
2023/08/16 05:55:33;;;;;;;5.40;3.83;;;26.80;65.80;;;;;;5111694;28;20118;-71
2023/08/16 05:57:58;;;;;;;4.50;3.75;;;26.90;65.70;;;;;;5112919;28;20073;-71
2023/08/16 06:00:24;;;;;;;4.57;3.70;;;26.90;65.50;;;;;;5112225;28;20019;-70
2023/08/16 06:02:50;;;;;;;5.20;3.70;;;26.90;65.40;;;;;;5112997;28;20024;-71
2023/08/16 06:05:15;;;;;;;4.50;3.92;;;27.00;65.40;;;;;;5112289;28;20123;-71
2023/08/16 06:07:41;;;;;;;4.57;3.97;;;27.00;65.30;;;;;;5111408;28;20034;-70
2023/08/16 06:10:07;;;;;;;4.00;3.60;;;27.00;65.10;;;;;;5112906;28;20385;-69
2023/08/16 06:12:33;;;;;;;5.07;3.50;;;27.10;65.10;;;;;;5113043;28;20031;-71
2023/08/16 06:14:58;;;;;;;4.15;3.75;;;27.10;65.00;;;;;;5111336;28;20032;-70
2023/08/16 06:17:24;;;;;;;3.67;3.38;;;27.10;64.80;;;;;;5111598;28;20075;-71
2023/08/16 06:19:50;;;;;;;4.05;3.38;;;27.20;64.70;;;;;;5113422;28;20110;-70
2023/08/16 06:22:15;;;;;;;3.97;3.55;;;27.20;64.50;;;;;;5116561;28;20434;-69
2023/08/16 06:24:41;;;;;;;4.00;3.60;;;27.20;64.30;;;;;;5116058;28;20038;-71
2023/08/16 06:27:08;;;;;;;4.60;3.40;;;27.30;64.30;;;;;;5116251;28;20099;-72
2023/08/16 06:29:37;;;;;;;3.70;3.40;;;27.20;64.10;;;;;;5117309;28;20115;-70
2023/08/16 06:32:03;;;;;;;3.85;3.45;;;27.30;64.00;;;;;;5116777;28;20374;-70
2023/08/16 06:34:29;;;;;;;4.03;3.25;;;27.30;63.90;;;;;;5116202;28;20039;-71
2023/08/16 06:36:55;;;;;;;3.72;2.92;;;27.30;63.70;;;;;;5116264;28;20115;-78
2023/08/16 06:39:21;;;;;;;3.47;3.17;;;27.30;64.00;;;;;;5116146;28;20085;-76
2023/08/16 06:41:48;;;;;;;4.05;3.10;;;27.40;63.30;;;;;;5116978;27;20089;-78
2023/08/16 06:44:13;;;;;;;4.00;3.10;;;27.40;63.10;;;;;;5116882;28;20027;-79
2023/08/16 06:46:39;;;;;;;3.65;3.10;;;27.40;62.90;;;;;;5116440;28;20043;-79
2023/08/16 06:49:05;;;;;;;4.47;3.25;;;27.40;62.70;;;;;;5116680;28;20024;-77
2023/08/16 06:51:31;;;;;;;3.38;2.92;;;27.40;62.50;;;;;;5115910;28;20101;-80
2023/08/16 06:53:56;;;;;;;2.83;2.63;;;27.40;62.40;;;;;;5115620;28;20088;-81
2023/08/16 06:56:22;;;;;;;3.33;3.03;;;27.50;62.30;;;;;;5117100;28;20040;-79
2023/08/16 06:58:49;;;;;;;4.57;3.42;;;27.50;62.00;;;;;;5115257;28;20019;-81
2023/08/16 07:01:14;;;;;;;4.95;2.97;;;27.50;62.00;;;;;;5116714;28;20102;-76
2023/08/16 07:03:40;;;;;;;3.97;3.55;;;27.50;61.90;;;;;;5116060;28;20050;-71
2023/08/16 07:06:06;;;;;;;4.75;3.60;;;27.60;61.70;;;;;;5115253;28;20040;-69
2023/08/16 07:08:32;;;;;;;4.32;3.25;;;27.60;61.50;;;;;;5116346;28;20519;-71
2023/08/16 07:10:57;;;;;;;3.28;2.97;;;27.60;61.40;;;;;;5115215;28;20127;-74
2023/08/16 07:13:23;;;;;;;3.60;3.30;;;27.60;61.30;;;;;;5114501;27;20030;-73
2023/08/16 07:15:49;;;;;;;3.47;3.17;;;27.60;61.40;;;;;;5114758;28;20145;-72
2023/08/16 07:18:15;;;;;;;3.88;3.25;;;27.70;61.60;;;;;;5115588;28;20023;-71
2023/08/16 07:20:40;;;;;;;3.70;2.92;;;27.70;61.40;;;;;;5116105;28;20051;-70
2023/08/16 07:23:06;;;;;;;3.90;3.00;;;27.70;61.10;;;;;;5113968;28;20027;-85
2023/08/16 07:25:32;;;;;;;5.78;2.85;;;27.70;61.00;;;;;;5113431;28;20031;-83
2023/08/16 07:27:58;;;;;;;4.80;2.85;;;27.80;61.10;;;;;;5115564;28;20028;-80
2023/08/16 07:30:24;;;;;;;2.88;2.67;;;27.80;61.10;;;;;;5115272;28;20030;-81
2023/08/16 07:32:50;;;;;;;2.65;2.45;;;27.80;60.90;;;;;;5113485;28;20027;-81
2023/08/16 07:35:16;;;;;;;3.97;2.65;;;27.80;60.50;;;;;;5114672;28;20027;-81
2023/08/16 07:37:43;;;;;;;3.42;3.03;;;27.80;60.10;;;;;;5113853;28;20036;-83
2023/08/16 07:40:10;;;;;;;5.18;3.00;;;27.80;59.90;;;;;;5115401;28;20062;-81
2023/08/16 07:42:36;;;;;;;4.00;3.30;;;27.90;59.80;;;;;;5114499;28;20073;-77
2023/08/16 07:45:02;;;;;;;3.17;2.88;;;27.90;59.80;;;;;;5115296;28;20416;-80
2023/08/16 07:47:28;;;;;;;3.58;3.25;;;27.90;59.80;;;;;;5114588;28;20031;-79
2023/08/16 07:49:54;;;;;;;3.80;3.35;;;27.90;59.80;;;;;;5114601;28;20114;-80
2023/08/16 07:52:20;;;;;;;4.32;3.60;;;28.00;60.00;;;;;;5115684;27;20106;-81
2023/08/16 07:54:46;;;;;;;3.08;2.88;;;28.00;60.00;;;;;;5115228;28;20420;-83
2023/08/16 07:57:12;;;;;;;5.38;3.40;;;28.00;59.90;;;;;;5115677;28;20028;-86
2023/08/16 07:59:42;;;;;;;31.23;26.52;;;28.10;59.90;;;;;;5115204;27;20040;-76
2023/08/16 08:02:07;;;;;;;3.65;3.22;;;28.10;59.90;;;;;;5113543;28;20031;-77
2023/08/16 08:04:34;;;;;;;4.03;3.30;;;28.10;60.00;;;;;;5111602;27;20039;-82
2023/08/16 08:07:00;;;;;;;3.30;3.00;;;28.10;60.00;;;;;;5112958;28;20038;-77
2023/08/16 08:09:26;;;;;;;3.90;3.10;;;28.20;59.90;;;;;;5114945;28;20366;-88
2023/08/16 08:11:51;;;;;;;5.03;2.90;;;28.20;59.80;;;;;;5113245;28;20031;-82
2023/08/16 08:14:17;;;;;;;3.50;2.90;;;28.20;59.70;;;;;;5115442;28;20027;-84
2023/08/16 08:16:43;;;;;;;4.80;3.05;;;28.20;59.70;;;;;;5115228;27;20031;-80
2023/08/16 08:19:09;;;;;;;3.30;2.92;;;28.30;59.70;;;;;;5113373;28;20145;-80
2023/08/16 08:21:35;;;;;;;3.60;2.80;;;28.30;59.50;;;;;;5112523;28;20055;-81
2023/08/16 08:24:00;;;;;;;5.55;2.60;;;28.30;59.50;;;;;;5115091;28;20058;-82
2023/08/16 08:26:26;;;;;;;3.45;2.90;;;28.30;59.50;;;;;;5114633;28;20532;-79
2023/08/16 08:28:52;;;;;;;3.80;2.78;;;28.30;59.40;;;;;;5114780;28;20438;-76
2023/08/16 08:31:18;;;;;;;4.65;2.83;;;28.40;59.50;;;;;;5114473;28;20111;-80
2023/08/16 08:33:45;;;;;;;3.47;2.70;;;28.40;59.50;;;;;;5114067;28;20034;-75
2023/08/16 08:36:11;;;;;;;3.03;2.80;;;28.40;59.40;;;;;;5113246;28;20027;-76
2023/08/16 08:38:37;;;;;;;3.17;2.90;;;28.40;59.40;;;;;;5113637;28;20019;-81
2023/08/16 08:41:03;;;;;;;4.95;3.00;;;28.50;59.50;;;;;;5113443;28;20031;-76
2023/08/16 08:43:49;;;;;;;2.97;2.78;;;28.40;59.50;;;;;;5112998;28;20023;-76
2023/08/16 08:46:15;;;;;;;2.83;2.60;;;28.40;59.60;;;;;;5111797;28;20039;-77
2023/08/16 08:48:41;;;;;;;3.35;2.67;;;28.40;59.50;;;;;;5112971;28;20030;-74
2023/08/16 08:51:06;;;;;;;4.28;2.75;;;28.40;59.30;;;;;;5113203;28;20106;-73
2023/08/16 08:53:32;;;;;;;3.65;2.80;;;28.40;59.30;;;;;;5111392;28;20027;-74
2023/08/16 08:56:06;;;;;;;8.18;2.90;;;28.40;59.40;;;;;;5111540;28;20032;-77
2023/08/16 08:58:33;;;;;;;3.90;2.80;;;28.40;59.50;;;;;;5112768;28;20031;-75
2023/08/16 09:00:59;;;;;;;4.60;2.92;;;28.40;59.50;;;;;;5112094;28;20020;-74
2023/08/16 09:03:26;;;;;;;3.40;2.60;;;28.40;60.00;;;;;;5113550;28;20534;-74
2023/08/16 09:05:54;;;;;;;3.33;2.90;;;28.40;59.30;;;;;;5111866;28;20098;-70
2023/08/16 09:08:20;;;;;;;3.17;2.80;;;28.40;59.20;;;;;;5112168;28;20107;-74
2023/08/16 09:10:46;;;;;;;3.25;2.95;;;28.50;59.20;;;;;;5112277;28;20051;-76
2023/08/16 09:13:12;;;;;;;3.30;3.00;;;28.50;59.10;;;;;;5112748;28;20028;-73
2023/08/16 09:15:39;;;;;;;3.03;2.72;;;28.50;59.00;;;;;;5112920;28;20043;-71
2023/08/16 09:18:13;;;;;;;3.08;2.72;;;28.60;59.10;;;;;;5111609;28;20086;-72
2023/08/16 09:20:39;;;;;;;3.42;2.60;;;28.60;59.10;;;;;;5106105;28;20052;-71
2023/08/16 09:23:05;;;;;;;3.75;3.20;;;28.60;59.00;;;;;;5112032;28;20111;-72
2023/08/16 09:25:31;;;;;;;3.30;2.90;;;28.60;58.90;;;;;;5111247;28;20039;-74
2023/08/16 09:27:56;;;;;;;2.95;2.65;;;28.70;58.90;;;;;;5121810;28;20031;-74
2023/08/16 09:30:26;;;;;;;3.05;2.75;;;28.70;58.90;;;;;;5110822;28;20028;-74
2023/08/16 09:32:52;;;;;;;3.00;2.80;;;28.70;58.90;;;;;;5112605;28;20034;-73
2023/08/16 09:35:19;;;;;;;3.50;3.20;;;28.70;58.90;;;;;;5110909;28;20039;-74
2023/08/16 09:37:45;;;;;;;2.90;2.70;;;28.70;58.90;;;;;;5111880;28;20020;-75
2023/08/16 09:40:11;;;;;;;3.28;2.97;;;28.80;59.00;;;;;;5111070;28;20020;-74
2023/08/16 09:42:37;;;;;;;3.25;2.95;;;28.80;59.00;;;;;;5112093;28;20024;-72
2023/08/16 09:45:03;;;;;;;3.30;3.00;;;28.80;59.10;;;;;;5111952;28;20054;-74
2023/08/16 09:47:30;;;;;;;3.42;3.13;;;28.80;59.00;;;;;;5113060;28;20055;-73
2023/08/16 09:49:57;;;;;;;3.47;2.90;;;28.90;59.00;;;;;;5113486;28;20019;-73
2023/08/16 09:52:23;;;;;;;3.10;2.80;;;28.90;59.00;;;;;;5113023;28;20036;-70
2023/08/16 09:54:53;;;;;;;2.80;2.60;;;28.90;58.90;;;;;;5113829;28;20055;-72
2023/08/16 09:57:20;;;;;;;3.55;3.08;;;28.90;58.90;;;;;;5114569;28;20096;-71
2023/08/16 09:59:46;;;;;;;3.22;2.92;;;29.00;59.10;;;;;;5116634;28;20458;-72
2023/08/16 10:02:13;;;;;;;4.63;2.60;;;29.00;59.00;;;;;;5116648;28;20084;-71
2023/08/16 10:04:41;;;;;;;3.38;3.05;;;29.00;59.00;;;;;;5116938;28;20040;-72
2023/08/16 10:07:08;;;;;;;4.43;2.90;;;29.00;58.90;;;;;;5115982;28;20036;-71
2023/08/16 10:09:34;;;;;;;3.30;2.75;;;29.00;58.80;;;;;;5115596;28;20047;-72
2023/08/16 10:12:04;;;;;;;3.33;2.67;;;29.10;58.90;;;;;;5116136;28;20077;-72
2023/08/16 10:14:30;;;;;;;2.75;2.30;;;29.10;58.90;;;;;;5110465;28;20084;-70
2023/08/16 10:17:08;;;;;;;3.40;2.70;;;29.10;58.80;;;;;;5114890;28;20046;-71
2023/08/16 10:19:37;;;;;;;3.10;2.60;;;29.10;58.70;;;;;;5116462;28;20047;-72
2023/08/16 10:22:11;;;;;;;3.17;2.60;;;29.10;58.60;;;;;;5115716;28;20024;-74
2023/08/16 10:24:36;;;;;;;3.80;2.45;;;29.10;58.50;;;;;;5115582;28;20028;-74
2023/08/16 10:27:04;;;;;;;5.50;4.45;;;29.10;58.40;;;;;;5114003;28;20522;-77
2023/08/16 10:29:38;;;;;;;6.28;4.05;;;29.20;58.30;;;;;;5113944;28;20035;-79
2023/08/16 10:32:09;;;;;;;;;;;29.20;58.40;;;;;;5114640;28;20477;-80
2023/08/16 10:34:35;;;;;;;2.92;2.63;;;29.10;58.20;;;;;;5096167;28;20365;-75
2023/08/16 10:37:02;;;;;;;2.35;2.20;;;29.20;58.40;;;;;;5110668;28;20040;-77
2023/08/16 10:39:30;;;;;;;2.92;2.63;;;29.20;58.30;;;;;;5116719;28;20454;-77
2023/08/16 10:42:05;;;;;;;3.17;2.83;;;29.20;58.30;;;;;;5116490;28;20035;-75
2023/08/16 10:44:32;;;;;;;2.72;2.53;;;29.10;58.10;;;;;;5115347;28;20023;-75
2023/08/16 10:46:58;;;;;;;3.25;2.63;;;29.20;58.20;;;;;;5116175;28;20084;-71
2023/08/16 10:49:34;;;;;;;3.63;2.40;;;29.20;58.10;;;;;;5116338;28;20440;-72
2023/08/16 10:52:01;;;;;;;4.68;2.42;;;29.20;58.10;;;;;;5115119;28;20407;-74
2023/08/16 10:54:37;;;;;;;5.72;2.88;;;29.20;58.10;;;;;;5113911;28;20126;-73
2023/08/16 10:57:08;;;;;;;3.05;2.60;;;29.20;57.90;;;;;;5114593;28;20035;-74
2023/08/16 10:59:38;;;;;;;3.83;2.58;;;29.10;57.60;;;;;;5114790;28;20510;-73
2023/08/16 11:02:17;;;;;;;2.50;2.30;;;29.10;57.50;;;;;;5116293;28;20027;-72
2023/08/16 11:04:45;;;;;;;3.45;2.30;;;29.10;57.10;;;;;;5115494;28;20027;-73
2023/08/16 11:07:12;;;;;;;2.85;2.40;;;29.10;57.10;;;;;;5110774;28;20069;-74
2023/08/16 11:09:39;;;;;;;3.45;2.28;;;29.10;56.90;;;;;;5117991;27;20048;-75
2023/08/16 11:12:06;;;;;;;2.65;2.30;;;29.10;56.80;;;;;;5115126;28;20030;-73
2023/08/16 11:14:36;;;;;;;2.20;2.00;;;29.10;56.40;;;;;;5113514;28;20027;-74
2023/08/16 11:17:04;;;;;;;3.67;2.00;;;29.10;56.00;;;;;;5112426;28;20076;-73
2023/08/16 11:19:30;;;;;;;1.83;1.73;;;29.10;55.00;;;;;;5115091;28;20063;-74
2023/08/16 11:22:01;;;;;;;1.88;1.77;;;29.10;54.70;;;;;;5139745;27;20466;-74
2023/08/16 11:24:27;;;;;;;4.40;1.85;;;29.20;54.30;;;;;;5115107;28;20016;-74
2023/08/16 11:26:53;;;;;;;2.00;1.80;;;29.20;54.20;;;;;;5115103;28;20430;-74
2023/08/16 11:29:19;;;;;;;1.80;1.50;;;29.20;53.90;;;;;;5114603;28;20040;-73
2023/08/16 11:31:45;;;;;;;2.70;1.58;;;29.20;53.80;;;;;;5114757;28;20019;-73
2023/08/16 11:34:10;;;;;;;1.60;1.50;;;29.20;53.40;;;;;;5114978;28;20028;-73
2023/08/16 11:36:39;;;;;;;3.83;1.70;;;29.20;53.10;;;;;;5113516;28;20545;-73
2023/08/16 11:39:08;;;;;;;2.20;1.75;;;29.30;52.70;;;;;;5115336;28;20055;-72
2023/08/16 11:41:38;;;;;;;1.65;1.55;;;29.30;52.70;;;;;;5114488;28;20426;-72
2023/08/16 11:44:05;;;;;;;2.35;1.90;;;29.30;52.70;;;;;;5139464;27;20031;-73
2023/08/16 11:46:44;;;;;;;1.80;1.70;;;29.30;52.60;;;;;;5114537;28;20027;-74
2023/08/16 11:49:11;;;;;;;1.75;1.52;;;29.30;51.70;;;;;;5113603;28;20027;-75
2023/08/16 11:51:41;;;;;;;2.35;1.55;;;29.40;52.20;;;;;;5110710;28;20148;-72
2023/08/16 11:54:08;;;;;;;2.08;1.55;;;29.40;52.00;;;;;;5114736;28;20039;-77
2023/08/16 11:56:34;;;;;;;2.50;1.52;;;29.40;51.90;;;;;;5112665;28;20080;-74
2023/08/16 11:59:00;;;;;;;2.28;1.30;;;29.40;51.80;;;;;;5114474;28;20098;-75
2023/08/16 12:01:27;;;;;;;1.50;1.40;;;29.50;51.60;;;;;;5114018;28;20394;-77
2023/08/16 12:03:53;;;;;;;1.30;1.20;;;29.50;51.50;;;;;;5114454;28;20023;-73
2023/08/16 12:06:21;;;;;;;1.85;1.48;;;29.50;51.30;;;;;;5114275;28;20024;-73
2023/08/16 12:08:54;;;;;;;5.82;1.80;;;29.50;51.10;;;;;;5113976;28;20023;-73
2023/08/16 12:11:33;;;;;;;1.95;1.50;;;29.60;51.00;;;;;;5113353;28;20562;-74
2023/08/16 12:14:00;;;;;;;1.55;1.40;;;29.60;50.10;;;;;;5112823;28;20104;-74
2023/08/16 12:16:26;;;;;;;3.60;1.45;;;29.60;51.00;;;;;;5115530;27;20106;-73
2023/08/16 12:18:51;;;;;;;1.48;1.38;;;29.60;51.00;;;;;;5112204;28;20469;-73
2023/08/16 12:21:17;;;;;;;1.48;1.38;;;29.70;51.00;;;;;;5113991;28;20099;-76
2023/08/16 12:23:43;;;;;;;3.58;1.80;;;29.80;50.80;;;;;;5111198;28;20035;-75
2023/08/16 12:26:08;;;;;;;1.98;1.58;;;29.80;50.50;;;;;;5113850;28;20067;-73
2023/08/16 12:28:34;;;;;;;1.50;1.40;;;29.80;50.60;;;;;;5113778;28;20469;-73
2023/08/16 12:31:00;;;;;;;2.92;1.45;;;29.90;50.60;;;;;;5113814;28;20023;-73
2023/08/16 12:33:26;;;;;;;1.77;1.50;;;29.90;50.60;;;;;;5138349;27;20045;-73
2023/08/16 12:35:52;;;;;;;1.50;1.40;;;30.10;50.80;;;;;;5112495;28;20059;-74
2023/08/16 12:38:19;;;;;;;2.83;1.40;;;30.10;50.50;;;;;;5138151;27;20031;-73
2023/08/16 12:40:45;;;;;;;1.50;1.40;;;30.10;50.30;;;;;;5113655;28;20030;-73
2023/08/16 12:43:11;;;;;;;1.60;1.50;;;30.20;50.30;;;;;;5113789;28;20107;-74
2023/08/16 12:45:37;;;;;;;1.30;1.20;;;30.20;50.10;;;;;;5109782;28;20027;-74